createdAt,value
2022-11-13T00:02:06.775Z,9.96
2022-11-13T00:04:34.263Z,9.89
2022-11-13T00:07:01.754Z,9.89
2022-11-13T00:09:29.240Z,9.87
2022-11-13T00:11:56.701Z,9.81
2022-11-13T00:14:25.483Z,9.82
2022-11-13T00:16:52.942Z,9.89
2022-11-13T00:19:20.361Z,9.89
2022-11-13T00:21:47.808Z,9.85
2022-11-13T00:24:15.246Z,9.86
2022-11-13T00:26:42.883Z,9.93
2022-11-13T00:29:10.590Z,9.96
2022-11-13T00:31:39.419Z,9.91
2022-11-13T00:34:33.141Z,9.89
2022-11-13T00:36:54.286Z,9.91
2022-11-13T00:39:21.813Z,9.87
2022-11-13T00:41:49.269Z,9.87
2022-11-13T00:44:16.699Z,9.87
2022-11-13T00:46:45.499Z,9.98
2022-11-13T00:49:13.581Z,9.92
2022-11-13T00:51:41.395Z,9.89
2022-11-13T00:54:08.905Z,9.99
2022-11-13T00:56:36.380Z,9.90
2022-11-13T00:59:03.866Z,9.91
2022-11-13T01:01:32.244Z,9.86
2022-11-13T01:04:01.086Z,9.77
2022-11-13T01:06:29.033Z,9.80
2022-11-13T01:08:57.027Z,9.81
2022-11-13T01:11:25.915Z,9.81
2022-11-13T01:13:53.871Z,9.77
2022-11-13T01:16:24.623Z,9.75
2022-11-13T01:18:52.663Z,9.81
2022-11-13T01:21:23.010Z,9.85
2022-11-13T01:23:50.484Z,9.86
2022-11-13T01:26:20.735Z,9.81
2022-11-13T01:28:48.446Z,9.84
2022-11-13T01:31:17.961Z,9.87
2022-11-13T01:33:45.812Z,9.82
2022-11-13T01:36:15.036Z,9.85
2022-11-13T01:38:43.883Z,9.83
2022-11-13T01:41:22.900Z,9.84
2022-11-13T01:43:51.684Z,9.81
2022-11-13T01:46:31.440Z,9.78
2022-11-13T01:49:04.250Z,9.69
2022-11-13T01:51:34.323Z,9.75
2022-11-13T01:54:06.509Z,9.68
2022-11-13T01:56:33.962Z,9.58
2022-11-13T01:59:08.042Z,9.61
2022-11-13T02:01:35.878Z,9.64
2022-11-13T02:04:04.575Z,9.59
2022-11-13T02:06:37.854Z,9.53
2022-11-13T02:09:07.239Z,9.55
2022-11-13T02:11:34.678Z,9.52
2022-11-13T02:14:03.019Z,9.49
2022-11-13T02:16:31.303Z,9.52
2022-11-13T02:18:58.898Z,9.51
2022-11-13T02:21:33.684Z,9.62
2022-11-13T02:24:11.261Z,9.69
2022-11-13T02:26:38.835Z,9.74
2022-11-13T02:29:06.365Z,9.69
2022-11-13T02:31:33.807Z,9.65
2022-11-13T02:34:03.009Z,9.58
2022-11-13T02:36:31.132Z,9.58
2022-11-13T02:39:00.101Z,9.54
2022-11-13T02:41:28.908Z,9.49
2022-11-13T02:43:56.356Z,9.47
2022-11-13T02:46:23.833Z,9.46
2022-11-13T02:48:51.287Z,9.48
2022-11-13T02:51:18.759Z,9.48
2022-11-13T02:53:46.309Z,9.42
2022-11-13T02:56:13.770Z,9.45
2022-11-13T02:58:42.736Z,9.40
2022-11-13T03:01:10.332Z,9.44
2022-11-13T03:06:25.361Z,9.42
2022-11-13T03:08:52.812Z,9.39
2022-11-13T03:11:20.271Z,9.46
2022-11-13T03:13:49.088Z,9.45
2022-11-13T03:16:18.108Z,9.46
2022-11-13T03:18:45.547Z,9.43
2022-11-13T03:21:14.191Z,9.43
2022-11-13T03:23:44.871Z,9.41
2022-11-13T03:26:15.183Z,9.39
2022-11-13T03:28:42.988Z,9.38
2022-11-13T03:31:11.794Z,9.35
2022-11-13T03:33:39.340Z,9.38
2022-11-13T03:36:07.423Z,9.33
2022-11-13T03:38:35.342Z,9.37
2022-11-13T03:41:02.822Z,9.31
2022-11-13T03:43:30.341Z,9.30
2022-11-13T03:45:57.959Z,9.30
2022-11-13T03:48:26.987Z,9.20
2022-11-13T03:50:56.044Z,9.16
2022-11-13T03:53:23.545Z,9.36
2022-11-13T03:55:51.008Z,9.19
2022-11-13T03:58:18.514Z,9.14
2022-11-13T04:00:46.455Z,9.13
2022-11-13T04:03:13.980Z,9.14
2022-11-13T04:05:43.175Z,9.13
2022-11-13T04:08:10.968Z,9.13
2022-11-13T04:10:38.473Z,9.15
2022-11-13T04:13:05.943Z,9.07
2022-11-13T04:15:33.440Z,9.06
2022-11-13T04:18:00.924Z,9.11
2022-11-13T04:20:28.708Z,9.16
2022-11-13T04:22:58.366Z,9.19
2022-11-13T04:25:26.030Z,9.19
2022-11-13T04:27:54.074Z,9.19
2022-11-13T04:30:21.601Z,9.18
2022-11-13T04:32:49.050Z,9.11
2022-11-13T04:35:16.531Z,9.10
2022-11-13T04:37:43.988Z,9.09
2022-11-13T04:40:13.411Z,9.11
2022-11-13T04:42:49.165Z,9.13
2022-11-13T04:45:17.788Z,9.13
2022-11-13T04:47:45.791Z,9.16
2022-11-13T04:50:13.891Z,9.13
2022-11-13T04:52:41.430Z,9.17
2022-11-13T04:55:10.158Z,9.15
2022-11-13T04:57:39.187Z,9.08
2022-11-13T05:00:07.459Z,8.98
2022-11-13T05:02:34.997Z,9.08
2022-11-13T05:05:05.297Z,9.06
2022-11-13T05:07:33.384Z,9.02
2022-11-13T05:10:00.879Z,8.95
2022-11-13T05:12:28.335Z,8.99
2022-11-13T05:14:57.128Z,8.93
2022-11-13T05:17:24.591Z,8.96
2022-11-13T05:19:52.056Z,8.97
2022-11-13T05:22:19.523Z,8.99
2022-11-13T05:24:46.981Z,8.84
2022-11-13T05:27:17.601Z,8.80
2022-11-13T05:29:45.424Z,8.84
2022-11-13T05:32:14.206Z,8.85
2022-11-13T05:34:41.778Z,8.87
2022-11-13T05:37:09.364Z,8.89
2022-11-13T05:39:36.807Z,8.78
2022-11-13T05:42:05.564Z,8.91
2022-11-13T05:44:33.014Z,8.86
2022-11-13T05:47:00.475Z,8.87
2022-11-13T05:49:29.242Z,8.89
2022-11-13T05:51:56.711Z,8.80
2022-11-13T05:54:24.651Z,8.85
2022-11-13T05:56:52.086Z,8.86
2022-11-13T05:59:19.559Z,8.91
2022-11-13T06:01:47.119Z,8.95
2022-11-13T06:04:14.584Z,8.85
2022-11-13T06:06:43.481Z,8.91
2022-11-13T06:09:11.240Z,8.80
2022-11-13T06:11:38.696Z,8.90
2022-11-13T06:14:06.234Z,8.78
2022-11-13T06:16:36.989Z,8.69
2022-11-13T06:19:07.182Z,8.81
2022-11-13T06:21:36.639Z,8.73
2022-11-13T06:24:06.228Z,8.78
2022-11-13T06:26:34.971Z,8.75
2022-11-13T06:29:03.683Z,8.71
2022-11-13T06:31:32.728Z,8.75
2022-11-13T06:34:00.868Z,8.72
2022-11-13T06:36:29.527Z,8.74
2022-11-13T06:38:57.405Z,8.68
2022-11-13T06:41:29.567Z,8.70
2022-11-13T06:44:01.257Z,8.72
2022-11-13T06:46:30.436Z,8.67
2022-11-13T06:48:58.172Z,8.69
2022-11-13T06:51:27.354Z,8.64
2022-11-13T06:53:55.236Z,8.69
2022-11-13T06:56:22.870Z,8.65
2022-11-13T06:58:51.792Z,8.62
2022-11-13T07:01:20.860Z,8.63
2022-11-13T07:03:48.564Z,8.61
2022-11-13T07:06:17.907Z,8.56
2022-11-13T07:08:46.370Z,8.60
2022-11-13T07:11:15.252Z,8.61
2022-11-13T07:13:43.020Z,8.51
2022-11-13T07:16:17.374Z,8.56
2022-11-13T07:18:45.631Z,8.51
2022-11-13T07:21:13.867Z,8.55
2022-11-13T07:23:43.159Z,8.45
2022-11-13T07:26:11.457Z,8.24
2022-11-13T07:28:39.331Z,8.19
2022-11-13T07:31:07.509Z,8.24
2022-11-13T07:33:36.378Z,8.16
2022-11-13T07:36:03.950Z,8.16
2022-11-13T07:38:31.817Z,8.28
2022-11-13T07:40:59.831Z,8.22
2022-11-13T07:43:27.781Z,8.26
2022-11-13T07:45:55.447Z,8.01
2022-11-13T07:48:23.485Z,8.09
2022-11-13T07:50:52.325Z,8.08
2022-11-13T07:53:21.650Z,7.95
2022-11-13T07:55:49.136Z,7.94
2022-11-13T07:58:16.691Z,7.98
2022-11-13T08:00:44.230Z,7.92
2022-11-13T08:03:14.515Z,7.95
2022-11-13T08:05:42.219Z,7.95
2022-11-13T08:08:12.627Z,7.97
2022-11-13T08:10:40.064Z,8.00
2022-11-13T08:13:09.073Z,7.98
2022-11-13T08:15:37.132Z,8.07
2022-11-13T08:18:05.469Z,7.97
2022-11-13T08:20:33.373Z,8.00
2022-11-13T08:23:02.069Z,8.06
2022-11-13T08:25:31.718Z,7.97
2022-11-13T08:27:59.360Z,7.93
2022-11-13T08:30:28.530Z,7.90
2022-11-13T08:32:55.984Z,7.92
2022-11-13T08:35:28.086Z,7.92
2022-11-13T08:37:57.099Z,7.84
2022-11-13T08:40:24.536Z,7.82
2022-11-13T08:42:54.355Z,7.93
2022-11-13T08:45:21.798Z,7.86
2022-11-13T08:47:49.216Z,7.90
2022-11-13T08:50:16.720Z,7.90
2022-11-13T08:52:44.168Z,8.02
2022-11-13T08:55:11.702Z,8.11
2022-11-13T08:57:40.222Z,8.15
2022-11-13T09:00:10.586Z,8.05
2022-11-13T09:02:38.002Z,7.88
2022-11-13T09:05:06.141Z,7.69
2022-11-13T09:07:33.669Z,7.71
2022-11-13T09:10:04.843Z,7.66
2022-11-13T09:12:32.291Z,7.64
2022-11-13T09:14:59.757Z,7.69
2022-11-13T09:17:28.563Z,7.77
2022-11-13T09:19:59.463Z,7.75
2022-11-13T09:22:29.700Z,7.70
2022-11-13T09:24:57.150Z,7.68
2022-11-13T09:27:24.605Z,7.78
2022-11-13T09:29:55.584Z,7.81
2022-11-13T09:32:23.342Z,7.78
2022-11-13T09:34:52.145Z,7.75
2022-11-13T09:37:19.585Z,7.81
2022-11-13T09:39:47.039Z,7.83
2022-11-13T09:42:17.185Z,7.85
2022-11-13T09:44:47.718Z,7.80
2022-11-13T09:47:19.867Z,7.83
2022-11-13T09:49:50.698Z,7.84
2022-11-13T09:52:21.919Z,7.85
2022-11-13T09:54:49.438Z,7.97
2022-11-13T09:57:27.256Z,8.11
2022-11-13T09:59:58.295Z,8.14
2022-11-13T10:02:32.741Z,8.27
2022-11-13T10:05:05.977Z,8.25
2022-11-13T10:07:38.120Z,8.15
2022-11-13T10:10:29.008Z,8.11
2022-11-13T10:12:57.668Z,8.02
2022-11-13T10:15:26.346Z,8.13
2022-11-13T10:17:57.193Z,8.09
2022-11-13T10:20:26.814Z,8.13
2022-11-13T10:22:58.468Z,8.15
2022-11-13T10:25:28.283Z,8.10
2022-11-13T10:27:57.844Z,8.23
2022-11-13T10:30:25.604Z,8.17
2022-11-13T10:32:53.137Z,8.22
2022-11-13T10:35:33.960Z,8.23
2022-11-13T10:38:08.555Z,8.17
2022-11-13T10:40:37.791Z,8.31
2022-11-13T10:43:07.005Z,8.39
2022-11-13T10:45:34.495Z,8.25
2022-11-13T10:48:04.660Z,8.26
2022-11-13T10:50:33.807Z,8.42
2022-11-13T10:53:02.619Z,8.52
2022-11-13T10:55:38.019Z,8.48
2022-11-13T10:58:13.656Z,8.55
2022-11-13T11:00:44.296Z,8.59
2022-11-13T11:03:16.124Z,8.61
2022-11-13T11:05:54.095Z,8.42
2022-11-13T11:08:28.533Z,8.64
2022-11-13T11:11:13.756Z,8.53
2022-11-13T11:13:41.240Z,8.51
2022-11-13T11:16:09.833Z,8.55
2022-11-13T11:18:39.302Z,8.46
2022-11-13T11:21:09.027Z,8.45
2022-11-13T11:23:42.340Z,8.45
2022-11-13T11:26:13.918Z,8.52
2022-11-13T11:28:45.447Z,8.54
2022-11-13T11:31:18.122Z,8.64
2022-11-13T11:33:52.081Z,8.66
2022-11-13T11:36:27.069Z,8.71
2022-11-13T11:39:06.937Z,8.69
2022-11-13T11:41:40.161Z,8.69
2022-11-13T11:44:16.751Z,8.56
2022-11-13T11:46:46.856Z,8.69
2022-11-13T11:49:15.455Z,8.74
2022-11-13T11:51:51.097Z,8.77
2022-11-13T11:54:31.482Z,8.72
2022-11-13T11:57:03.195Z,8.84
2022-11-13T11:59:41.086Z,8.78
2022-11-13T12:02:50.060Z,8.83
2022-11-13T12:09:30.049Z,8.93
2022-11-13T12:12:25.976Z,8.98
2022-11-13T12:15:13.842Z,9.02
2022-11-13T12:17:52.055Z,9.00
2022-11-13T12:20:50.393Z,8.92
2022-11-13T12:23:51.206Z,9.05
2022-11-13T12:26:32.918Z,9.09
2022-11-13T12:29:33.357Z,9.03
2022-11-13T12:32:41.924Z,8.98
2022-11-13T12:35:35.179Z,9.04
2022-11-13T12:38:18.049Z,9.12
2022-11-13T12:41:00.687Z,9.13
2022-11-13T12:47:00.435Z,9.13
2022-11-13T12:49:32.193Z,9.18
2022-11-13T12:52:14.493Z,9.14
2022-11-13T12:58:24.236Z,9.17
2022-11-13T13:01:08.603Z,9.23
2022-11-13T13:04:02.992Z,9.24
2022-11-13T13:07:12.685Z,9.29
2022-11-13T13:10:21.035Z,9.41
2022-11-13T13:13:03.671Z,9.41
2022-11-13T13:16:03.402Z,9.32
2022-11-13T13:18:32.539Z,9.40
2022-11-13T13:21:07.565Z,9.38
2022-11-13T13:23:37.922Z,9.41
2022-11-13T13:26:07.824Z,9.31
2022-11-13T13:28:39.865Z,9.46
2022-11-13T13:31:27.428Z,9.51
2022-11-13T13:34:01.806Z,9.45
2022-11-13T13:36:39.279Z,9.37
2022-11-13T13:39:16.414Z,9.34
2022-11-13T13:41:53.024Z,9.33
2022-11-13T13:44:31.317Z,9.33
2022-11-13T13:46:59.091Z,9.39
2022-11-13T13:49:28.305Z,9.40
2022-11-13T13:51:58.488Z,9.37
2022-11-13T13:54:28.912Z,9.36
2022-11-13T13:56:57.836Z,9.44
2022-11-13T13:59:30.668Z,9.46
2022-11-13T14:01:59.831Z,9.42
2022-11-13T14:04:31.452Z,9.45
2022-11-13T14:07:01.969Z,9.47
2022-11-13T14:09:31.332Z,9.42
2022-11-13T14:12:00.783Z,9.49
2022-11-13T14:14:30.551Z,9.49
2022-11-13T14:17:01.556Z,9.58
2022-11-13T14:19:29.241Z,9.59
2022-11-13T14:22:00.049Z,9.53
2022-11-13T14:24:30.173Z,9.56
2022-11-13T14:26:59.075Z,9.50
2022-11-13T14:29:34.174Z,9.44
2022-11-13T14:32:05.570Z,9.42
2022-11-13T14:34:33.171Z,9.43
2022-11-13T14:37:13.633Z,9.43
2022-11-13T14:39:43.003Z,9.44
2022-11-13T14:42:17.926Z,9.50
2022-11-13T14:44:45.420Z,9.46
2022-11-13T14:47:22.606Z,9.46
2022-11-13T14:49:50.099Z,9.44
2022-11-13T14:52:26.855Z,9.50
2022-11-13T14:55:20.583Z,9.46
2022-11-13T14:57:48.887Z,9.32
2022-11-13T15:00:17.440Z,9.49
2022-11-13T15:02:44.947Z,9.57
2022-11-13T15:05:12.416Z,9.72
2022-11-13T15:07:42.965Z,9.58
2022-11-13T15:10:13.568Z,9.60
2022-11-13T15:12:41.036Z,9.62
2022-11-13T15:15:12.982Z,9.63
2022-11-13T15:17:43.207Z,9.76
2022-11-13T15:20:15.097Z,9.77
2022-11-13T15:22:44.309Z,9.80
2022-11-13T15:25:16.359Z,9.88
2022-11-13T15:27:44.093Z,9.92
2022-11-13T15:30:12.506Z,9.82
2022-11-13T15:32:40.200Z,9.85
2022-11-13T15:35:11.540Z,9.91
2022-11-13T15:37:39.244Z,9.86
2022-11-13T15:40:09.148Z,9.91
2022-11-13T15:42:37.111Z,9.88
2022-11-13T15:45:06.232Z,9.94
2022-11-13T15:47:35.285Z,9.93
2022-11-13T15:50:19.918Z,9.89
2022-11-13T15:52:50.134Z,9.87
2022-11-13T15:55:26.588Z,9.93
2022-11-13T15:57:54.497Z,9.90
2022-11-13T16:00:24.798Z,9.83
2022-11-13T16:02:54.568Z,9.84
2022-11-13T16:05:23.776Z,9.82
2022-11-13T16:07:51.325Z,9.83
2022-11-13T16:10:19.366Z,9.86
2022-11-13T16:12:48.201Z,9.85
2022-11-13T16:15:16.654Z,9.81
2022-11-13T16:17:47.303Z,9.83
2022-11-13T16:20:16.635Z,9.80
2022-11-13T16:22:44.577Z,9.90
2022-11-13T16:25:13.094Z,9.91
2022-11-13T16:27:40.874Z,9.91
2022-11-13T16:30:14.828Z,9.94
2022-11-13T16:32:42.331Z,9.95
2022-11-13T16:35:13.703Z,9.92
2022-11-13T16:37:41.456Z,9.99
2022-11-13T16:40:19.983Z,9.94
2022-11-13T16:42:47.453Z,9.93
2022-11-13T16:45:16.436Z,10.06
2022-11-13T16:47:44.199Z,10.02
2022-11-13T16:50:13.952Z,9.98
2022-11-13T16:52:41.383Z,9.96
2022-11-13T16:55:09.283Z,10.01
2022-11-13T16:57:36.933Z,9.97
2022-11-13T17:00:06.788Z,9.95
2022-11-13T17:02:35.679Z,9.99
2022-11-13T17:05:03.191Z,10.01
2022-11-13T17:07:30.885Z,9.97
2022-11-13T17:10:24.142Z,10.05
2022-11-13T17:12:50.365Z,10.06
2022-11-13T17:15:18.021Z,10.12
2022-11-13T17:17:47.291Z,10.18
2022-11-13T17:20:17.292Z,10.11
2022-11-13T17:22:48.234Z,10.17
2022-11-13T17:25:17.310Z,10.18
2022-11-13T17:27:44.869Z,10.15
2022-11-13T17:30:13.579Z,10.12
2022-11-13T17:32:41.428Z,10.12
2022-11-13T17:35:12.616Z,10.13
2022-11-13T17:37:40.365Z,10.13
2022-11-13T17:40:08.952Z,10.22
2022-11-13T17:42:36.407Z,10.16
2022-11-13T17:45:04.105Z,10.10
2022-11-13T17:47:31.579Z,10.14
2022-11-13T17:50:03.876Z,10.22
2022-11-13T17:52:35.754Z,10.27
2022-11-13T17:55:05.853Z,10.24
2022-11-13T17:57:33.628Z,10.27
2022-11-13T18:00:01.167Z,10.23
2022-11-13T18:02:28.847Z,10.19
2022-11-13T18:04:59.053Z,10.17
2022-11-13T18:07:27.155Z,10.10
2022-11-13T18:09:56.398Z,10.12
2022-11-13T18:12:23.926Z,10.14
2022-11-13T18:14:53.081Z,10.19
2022-11-13T18:17:20.720Z,10.25
2022-11-13T18:19:48.212Z,10.20
2022-11-13T18:22:15.897Z,10.09
2022-11-13T18:24:43.856Z,10.13
2022-11-13T18:27:12.751Z,10.13
2022-11-13T18:29:41.172Z,10.19
2022-11-13T18:32:08.684Z,10.14
2022-11-13T18:34:36.136Z,10.26
2022-11-13T18:37:03.600Z,10.35
2022-11-13T18:39:31.068Z,10.28
2022-11-13T18:42:00.233Z,10.22
2022-11-13T18:44:29.036Z,10.35
2022-11-13T18:46:56.511Z,10.28
2022-11-13T18:49:23.989Z,10.32
2022-11-13T18:51:51.463Z,10.28
2022-11-13T18:54:19.102Z,10.27
2022-11-13T18:56:46.600Z,10.30
2022-11-13T18:59:14.070Z,10.37
2022-11-13T19:01:42.930Z,10.29
2022-11-13T19:04:27.140Z,10.31
2022-11-13T19:06:54.717Z,10.32
2022-11-13T19:09:22.531Z,10.39
2022-11-13T19:11:51.151Z,10.30
2022-11-13T19:14:19.794Z,10.37
2022-11-13T19:16:48.756Z,10.44
2022-11-13T19:19:17.787Z,10.51
2022-11-13T19:21:46.108Z,10.45
2022-11-13T19:24:14.661Z,10.54
2022-11-13T19:26:42.615Z,10.47
2022-11-13T19:29:10.384Z,10.56
2022-11-13T19:31:37.826Z,10.44
2022-11-13T19:34:08.081Z,10.39
2022-11-13T19:36:36.284Z,10.42
2022-11-13T19:39:04.560Z,10.45
2022-11-13T19:41:32.023Z,10.45
2022-11-13T19:44:00.666Z,10.49
2022-11-13T19:46:31.734Z,10.51
2022-11-13T19:48:59.202Z,10.44
2022-11-13T19:51:28.421Z,10.29
2022-11-13T19:53:56.830Z,10.44
2022-11-13T19:56:25.164Z,10.30
2022-11-13T19:58:52.859Z,10.23
2022-11-13T20:01:21.873Z,10.38
2022-11-13T20:03:50.470Z,10.24
2022-11-13T20:06:18.175Z,10.46
2022-11-13T20:08:46.981Z,10.29
2022-11-13T20:11:15.187Z,10.30
2022-11-13T20:13:43.449Z,10.33
2022-11-13T20:16:12.171Z,10.31
2022-11-13T20:18:39.888Z,10.41
2022-11-13T20:21:07.493Z,10.36
2022-11-13T20:23:36.424Z,10.34
2022-11-13T20:26:06.845Z,10.28
2022-11-13T20:28:34.968Z,10.41
2022-11-13T20:31:07.133Z,10.44
2022-11-13T20:33:35.730Z,10.30
2022-11-13T20:36:06.774Z,10.41
2022-11-13T20:38:34.252Z,10.22
2022-11-13T20:41:05.977Z,10.17
2022-11-13T20:43:33.567Z,10.26
2022-11-13T20:46:04.723Z,10.27
2022-11-13T20:48:32.508Z,10.42
2022-11-13T20:51:06.048Z,10.32
2022-11-13T20:53:33.986Z,10.27
2022-11-13T20:56:02.990Z,10.16
2022-11-13T20:58:32.476Z,10.19
2022-11-13T21:01:04.137Z,9.83
2022-11-13T21:03:32.638Z,9.99
2022-11-13T21:06:02.991Z,10.02
2022-11-13T21:08:30.975Z,10.30
2022-11-13T21:11:00.232Z,10.25
2022-11-13T21:13:27.996Z,9.95
2022-11-13T21:15:56.802Z,10.21
2022-11-13T21:18:24.524Z,10.14
2022-11-13T21:20:52.276Z,9.96
2022-11-13T21:23:19.751Z,9.95
2022-11-13T21:25:47.224Z,9.77
2022-11-13T21:28:17.369Z,9.87
2022-11-13T21:30:48.443Z,9.75
2022-11-13T21:33:17.239Z,9.67
2022-11-13T21:35:49.376Z,9.77
2022-11-13T21:38:16.851Z,9.72
2022-11-13T21:41:04.304Z,9.83
2022-11-13T21:43:31.776Z,9.78
2022-11-13T21:46:04.483Z,9.81
2022-11-13T21:48:33.638Z,9.63
2022-11-13T21:51:01.194Z,9.90
2022-11-13T21:53:28.675Z,9.94
2022-11-13T21:55:56.182Z,9.82
2022-11-13T21:58:30.572Z,9.85
2022-11-13T22:00:58.708Z,9.87
2022-11-13T22:03:26.388Z,9.90
2022-11-13T22:06:16.608Z,9.67
2022-11-13T22:08:44.751Z,9.64
2022-11-13T22:11:12.664Z,9.67
2022-11-13T22:13:40.315Z,9.69
2022-11-13T22:16:09.533Z,9.67
2022-11-13T22:18:37.054Z,9.83
2022-11-13T22:21:07.816Z,9.73
2022-11-13T22:23:37.608Z,9.82
2022-11-13T22:26:06.176Z,9.90
2022-11-13T22:28:34.226Z,9.88
2022-11-13T22:31:02.586Z,9.69
2022-11-13T22:33:31.436Z,9.87
2022-11-13T22:36:03.152Z,9.82
2022-11-13T22:38:31.133Z,9.82
2022-11-13T22:41:04.924Z,9.48
2022-11-13T22:43:33.635Z,9.66
2022-11-13T22:46:05.846Z,9.71
2022-11-13T22:48:34.792Z,9.60
2022-11-13T22:51:07.167Z,9.61
2022-11-13T22:53:34.678Z,9.69
2022-11-13T22:56:05.082Z,9.58
2022-11-13T22:58:32.615Z,9.82
2022-11-13T23:01:07.516Z,9.84
2022-11-13T23:03:38.183Z,9.69
2022-11-13T23:06:05.901Z,9.55
2022-11-13T23:08:38.498Z,9.65
2022-11-13T23:11:08.147Z,9.65
2022-11-13T23:13:35.709Z,9.72
2022-11-13T23:16:03.382Z,9.63
2022-11-13T23:18:32.029Z,9.61
2022-11-13T23:20:59.952Z,9.58
2022-11-13T23:23:27.491Z,9.48
2022-11-13T23:25:54.995Z,9.43
2022-11-13T23:28:23.987Z,9.54
2022-11-13T23:30:51.676Z,9.51
2022-11-13T23:33:19.242Z,9.50
2022-11-13T23:35:47.064Z,9.46
2022-11-13T23:38:14.778Z,9.48
2022-11-13T23:40:42.341Z,9.53
2022-11-13T23:43:10.245Z,9.40
2022-11-13T23:45:39.233Z,9.32
2022-11-13T23:48:07.264Z,9.12
2022-11-13T23:50:34.745Z,9.20
2022-11-13T23:53:02.304Z,9.21
2022-11-13T23:55:29.763Z,9.41
2022-11-13T23:57:58.396Z,9.32
